Terminal Aerodrome Forecast
Issued by NWS Jackson, MS

Home | Current Version | Previous Version | Text Only | Print | Product List | Glossary On
Versions: 1 2 3 4 5 6 7 8 9 10 11 12 13 14 15 16 17
273
FTUS44 KJAN 172050 AAA
TAFGWO
TAF AMD
KGWO 172050Z 1721/1818 00000KT 5SM -RA BR BKN007
     FM180000 01003KT 6SM BR OVC007
     FM180500 03003KT 4SM BR OVC007=

USA.gov is the U.S. government's official web portal to all federal, state and local government web resources and services.